Airfield :
LOGIN :

Register | Disclaimer

   EN    FR    IT 

 










Legend :    VFR   Marginal VFR   IFR   Intensive IFR   Very Intensive IFR
Visi :
Ceiling :
>= 8 km
>= 3000ft
5 to 8 km
1000 to 3000 ft
1500m to 5 km
500 to 1000 ft
800 to 1500m
200 to 500 ft
< 800m
< 200 ft
Symbols :   Thunderstorms  Fog  Heavy snow  Heavy precipitations  Wind > 20 kt
SIGMETs :     Misc.  Thunderstorms  Icing  Turbulence  Mountain Waves  Volcanic Ashes







- Airport Elevation : 357 ft
- IATA code : TUF
- Download approach charts


LFOT - Tours

CURRENT METAR :
  • 210930Z AUTO 23004KT 190V300 9999 OVC046 23/11 Q1023 NOSIG

EXPIRED METARs :
  • 210900Z AUTO VRB02KT 9999 BKN047 23/13 Q1023 NOSIG
  • 210830Z AUTO VRB01KT 9999 OVC047 21/13 Q1023 NOSIG
  • 210800Z AUTO VRB02KT 9999 OVC043 20/14 Q1023 NOSIG
  • 210730Z AUTO 00000KT 9999 OVC041 19/13 Q1023 NOSIG
  • 210700Z AUTO 00000KT 9999 OVC041 18/13 Q1023 NOSIG

TAF TAF LFOT
Valid from the 21 at 06:00 until the 22 at 06:00 UTC


210500Z 2106/2206 VRB03KT CAVOK
BECMG 2117/2119 08005KT
No reported NOTAMs for that airfield.



MET'MAP, your aeronautical weather chart ! - Copyright ORBIFLY December 2007 - Disclaimer

ORBIFLY MET'MAP TEAM :

Programming & Development : Alexandra Zaïnal
Concept & Development : Baudouin d'Aumeries
Co-Development & Prog : Marc-Olivier Méhu
Technical & hardware support : Manuel Goepfert

Contact : metmap@orbifly.com




SOURCES & CREDITS :

   NOAA